sensor_id;sensor_type;location;lat;lon;timestamp;P1;durP1;ratioP1;P2;durP2;ratioP2
21862;SDS011;11096;51.338;12.524;2024-01-25T00:00:37;20.17;;;3.47;;
21862;SDS011;11096;51.338;12.524;2024-01-25T00:03:02;19.85;;;3.42;;
21862;SDS011;11096;51.338;12.524;2024-01-25T00:05:27;22.58;;;3.67;;
21862;SDS011;11096;51.338;12.524;2024-01-25T00:07:52;25.58;;;3.70;;
21862;SDS011;11096;51.338;12.524;2024-01-25T00:10:18;22.55;;;4.13;;
21862;SDS011;11096;51.338;12.524;2024-01-25T00:12:43;17.55;;;3.15;;
21862;SDS011;11096;51.338;12.524;2024-01-25T00:15:09;23.38;;;3.95;;
21862;SDS011;11096;51.338;12.524;2024-01-25T00:17:34;21.92;;;3.20;;
21862;SDS011;11096;51.338;12.524;2024-01-25T00:20:00;22.63;;;3.88;;
21862;SDS011;11096;51.338;12.524;2024-01-25T00:22:25;29.20;;;4.50;;
21862;SDS011;11096;51.338;12.524;2024-01-25T00:24:51;16.17;;;3.25;;
21862;SDS011;11096;51.338;12.524;2024-01-25T00:27:16;27.88;;;4.82;;
21862;SDS011;11096;51.338;12.524;2024-01-25T00:29:41;25.60;;;3.55;;
21862;SDS011;11096;51.338;12.524;2024-01-25T00:32:06;20.52;;;3.55;;
21862;SDS011;11096;51.338;12.524;2024-01-25T00:34:32;21.15;;;3.05;;
21862;SDS011;11096;51.338;12.524;2024-01-25T00:36:57;17.35;;;4.15;;
21862;SDS011;11096;51.338;12.524;2024-01-25T00:39:22;21.90;;;3.65;;
21862;SDS011;11096;51.338;12.524;2024-01-25T00:41:49;22.77;;;3.58;;
21862;SDS011;11096;51.338;12.524;2024-01-25T00:44:16;22.60;;;3.47;;
21862;SDS011;11096;51.338;12.524;2024-01-25T00:46:41;21.67;;;3.65;;
21862;SDS011;11096;51.338;12.524;2024-01-25T00:49:07;20.25;;;3.40;;
21862;SDS011;11096;51.338;12.524;2024-01-25T00:51:33;28.67;;;4.35;;
21862;SDS011;11096;51.338;12.524;2024-01-25T00:53:58;19.33;;;3.67;;
21862;SDS011;11096;51.338;12.524;2024-01-25T00:56:24;24.25;;;3.65;;
21862;SDS011;11096;51.338;12.524;2024-01-25T00:58:49;20.30;;;4.20;;
21862;SDS011;11096;51.338;12.524;2024-01-25T01:01:15;25.17;;;4.68;;
21862;SDS011;11096;51.338;12.524;2024-01-25T01:03:40;28.23;;;4.10;;
21862;SDS011;11096;51.338;12.524;2024-01-25T01:06:05;22.55;;;3.35;;
21862;SDS011;11096;51.338;12.524;2024-01-25T01:08:31;21.00;;;3.35;;
21862;SDS011;11096;51.338;12.524;2024-01-25T01:10:56;14.93;;;3.55;;
21862;SDS011;11096;51.338;12.524;2024-01-25T01:13:21;22.10;;;3.78;;
21862;SDS011;11096;51.338;12.524;2024-01-25T01:15:47;18.30;;;3.95;;
21862;SDS011;11096;51.338;12.524;2024-01-25T01:18:12;19.98;;;3.47;;
21862;SDS011;11096;51.338;12.524;2024-01-25T01:20:37;23.17;;;3.47;;
21862;SDS011;11096;51.338;12.524;2024-01-25T01:23:02;18.02;;;3.83;;
21862;SDS011;11096;51.338;12.524;2024-01-25T01:25:28;17.63;;;3.33;;
21862;SDS011;11096;51.338;12.524;2024-01-25T01:27:53;18.25;;;3.55;;
21862;SDS011;11096;51.338;12.524;2024-01-25T01:30:18;21.50;;;3.65;;
21862;SDS011;11096;51.338;12.524;2024-01-25T01:32:43;19.83;;;3.60;;
21862;SDS011;11096;51.338;12.524;2024-01-25T01:35:09;25.08;;;3.80;;
21862;SDS011;11096;51.338;12.524;2024-01-25T01:37:34;28.33;;;4.95;;
21862;SDS011;11096;51.338;12.524;2024-01-25T01:39:59;27.25;;;4.43;;
21862;SDS011;11096;51.338;12.524;2024-01-25T01:42:25;20.75;;;3.90;;
21862;SDS011;11096;51.338;12.524;2024-01-25T01:44:50;24.73;;;3.50;;
21862;SDS011;11096;51.338;12.524;2024-01-25T01:47:16;25.75;;;3.95;;
21862;SDS011;11096;51.338;12.524;2024-01-25T01:49:41;28.25;;;4.38;;
21862;SDS011;11096;51.338;12.524;2024-01-25T01:52:07;28.63;;;3.97;;
21862;SDS011;11096;51.338;12.524;2024-01-25T01:54:33;23.10;;;4.03;;
21862;SDS011;11096;51.338;12.524;2024-01-25T01:56:58;20.42;;;3.90;;
21862;SDS011;11096;51.338;12.524;2024-01-25T01:59:24;16.45;;;3.33;;
21862;SDS011;11096;51.338;12.524;2024-01-25T02:01:50;22.95;;;3.67;;
21862;SDS011;11096;51.338;12.524;2024-01-25T02:04:16;21.10;;;3.70;;
21862;SDS011;11096;51.338;12.524;2024-01-25T02:06:42;23.92;;;3.45;;
21862;SDS011;11096;51.338;12.524;2024-01-25T02:09:07;20.95;;;3.90;;
21862;SDS011;11096;51.338;12.524;2024-01-25T02:11:32;25.05;;;4.28;;
21862;SDS011;11096;51.338;12.524;2024-01-25T02:13:58;22.05;;;4.03;;
21862;SDS011;11096;51.338;12.524;2024-01-25T02:16:23;24.75;;;3.22;;
21862;SDS011;11096;51.338;12.524;2024-01-25T02:18:48;23.65;;;3.83;;
21862;SDS011;11096;51.338;12.524;2024-01-25T02:21:13;23.80;;;3.80;;
21862;SDS011;11096;51.338;12.524;2024-01-25T02:23:39;28.27;;;3.70;;
21862;SDS011;11096;51.338;12.524;2024-01-25T02:26:04;19.83;;;4.07;;
21862;SDS011;11096;51.338;12.524;2024-01-25T02:28:29;18.85;;;4.03;;
21862;SDS011;11096;51.338;12.524;2024-01-25T02:30:55;23.40;;;4.07;;
21862;SDS011;11096;51.338;12.524;2024-01-25T02:33:20;15.93;;;3.45;;
21862;SDS011;11096;51.338;12.524;2024-01-25T02:35:45;21.05;;;4.25;;
21862;SDS011;11096;51.338;12.524;2024-01-25T02:38:10;24.23;;;3.92;;
21862;SDS011;11096;51.338;12.524;2024-01-25T02:40:36;16.85;;;3.20;;
21862;SDS011;11096;51.338;12.524;2024-01-25T02:43:01;21.10;;;3.60;;
21862;SDS011;11096;51.338;12.524;2024-01-25T02:45:26;26.80;;;3.67;;
21862;SDS011;11096;51.338;12.524;2024-01-25T02:47:51;19.55;;;3.58;;
21862;SDS011;11096;51.338;12.524;2024-01-25T02:50:17;18.70;;;3.22;;
21862;SDS011;11096;51.338;12.524;2024-01-25T02:52:42;21.35;;;3.70;;
21862;SDS011;11096;51.338;12.524;2024-01-25T02:55:07;22.45;;;3.78;;
21862;SDS011;11096;51.338;12.524;2024-01-25T02:57:33;34.78;;;4.72;;
21862;SDS011;11096;51.338;12.524;2024-01-25T02:59:58;25.20;;;4.50;;
21862;SDS011;11096;51.338;12.524;2024-01-25T03:02:23;16.70;;;3.53;;
21862;SDS011;11096;51.338;12.524;2024-01-25T03:04:49;22.52;;;3.63;;
21862;SDS011;11096;51.338;12.524;2024-01-25T03:07:14;19.50;;;3.90;;
21862;SDS011;11096;51.338;12.524;2024-01-25T03:09:39;25.88;;;3.70;;
21862;SDS011;11096;51.338;12.524;2024-01-25T03:12:04;22.13;;;3.67;;
21862;SDS011;11096;51.338;12.524;2024-01-25T03:14:30;26.33;;;3.70;;
21862;SDS011;11096;51.338;12.524;2024-01-25T03:16:55;22.73;;;4.10;;
21862;SDS011;11096;51.338;12.524;2024-01-25T03:19:22;18.02;;;3.75;;
21862;SDS011;11096;51.338;12.524;2024-01-25T03:21:48;23.38;;;3.60;;
21862;SDS011;11096;51.338;12.524;2024-01-25T03:24:13;24.13;;;3.97;;
21862;SDS011;11096;51.338;12.524;2024-01-25T03:26:38;15.32;;;3.60;;
21862;SDS011;11096;51.338;12.524;2024-01-25T03:29:04;22.60;;;3.65;;
21862;SDS011;11096;51.338;12.524;2024-01-25T03:31:29;18.33;;;3.33;;
21862;SDS011;11096;51.338;12.524;2024-01-25T03:33:54;16.05;;;3.58;;
21862;SDS011;11096;51.338;12.524;2024-01-25T03:36:19;17.58;;;3.72;;
21862;SDS011;11096;51.338;12.524;2024-01-25T03:38:45;22.77;;;3.47;;
21862;SDS011;11096;51.338;12.524;2024-01-25T03:41:10;24.38;;;3.65;;
21862;SDS011;11096;51.338;12.524;2024-01-25T03:43:36;21.35;;;3.35;;
21862;SDS011;11096;51.338;12.524;2024-01-25T03:46:01;17.83;;;3.30;;
21862;SDS011;11096;51.338;12.524;2024-01-25T03:48:27;20.00;;;4.05;;
21862;SDS011;11096;51.338;12.524;2024-01-25T03:50:53;20.42;;;3.55;;
21862;SDS011;11096;51.338;12.524;2024-01-25T03:53:21;22.77;;;3.47;;
21862;SDS011;11096;51.338;12.524;2024-01-25T03:55:46;26.10;;;3.17;;
21862;SDS011;11096;51.338;12.524;2024-01-25T03:58:14;18.05;;;3.53;;
21862;SDS011;11096;51.338;12.524;2024-01-25T04:00:39;24.20;;;3.40;;
21862;SDS011;11096;51.338;12.524;2024-01-25T04:03:04;23.65;;;3.60;;
21862;SDS011;11096;51.338;12.524;2024-01-25T04:05:29;26.40;;;4.53;;
21862;SDS011;11096;51.338;12.524;2024-01-25T04:07:54;23.15;;;3.67;;
21862;SDS011;11096;51.338;12.524;2024-01-25T04:10:20;22.70;;;4.72;;
21862;SDS011;11096;51.338;12.524;2024-01-25T04:12:45;24.55;;;3.85;;
21862;SDS011;11096;51.338;12.524;2024-01-25T04:15:10;24.60;;;4.55;;
21862;SDS011;11096;51.338;12.524;2024-01-25T04:17:36;17.42;;;3.63;;
21862;SDS011;11096;51.338;12.524;2024-01-25T04:20:01;28.48;;;3.58;;
21862;SDS011;11096;51.338;12.524;2024-01-25T04:22:26;20.88;;;3.80;;
21862;SDS011;11096;51.338;12.524;2024-01-25T04:24:51;25.70;;;4.50;;
21862;SDS011;11096;51.338;12.524;2024-01-25T04:27:16;25.77;;;4.38;;
21862;SDS011;11096;51.338;12.524;2024-01-25T04:29:42;18.65;;;3.38;;
21862;SDS011;11096;51.338;12.524;2024-01-25T04:32:08;19.70;;;3.90;;
21862;SDS011;11096;51.338;12.524;2024-01-25T04:34:33;23.38;;;3.65;;
21862;SDS011;11096;51.338;12.524;2024-01-25T04:36:58;19.33;;;3.88;;
21862;SDS011;11096;51.338;12.524;2024-01-25T04:39:23;20.83;;;3.25;;
21862;SDS011;11096;51.338;12.524;2024-01-25T04:41:49;21.98;;;4.82;;
21862;SDS011;11096;51.338;12.524;2024-01-25T04:44:14;19.63;;;3.40;;
21862;SDS011;11096;51.338;12.524;2024-01-25T04:46:39;15.68;;;4.18;;
21862;SDS011;11096;51.338;12.524;2024-01-25T04:49:05;24.85;;;4.10;;
21862;SDS011;11096;51.338;12.524;2024-01-25T04:51:30;21.33;;;3.90;;
21862;SDS011;11096;51.338;12.524;2024-01-25T04:53:56;26.27;;;4.55;;
21862;SDS011;11096;51.338;12.524;2024-01-25T04:56:21;19.10;;;3.75;;
21862;SDS011;11096;51.338;12.524;2024-01-25T04:58:46;19.13;;;3.85;;
21862;SDS011;11096;51.338;12.524;2024-01-25T05:01:11;26.08;;;4.15;;
21862;SDS011;11096;51.338;12.524;2024-01-25T05:03:37;24.85;;;4.40;;
21862;SDS011;11096;51.338;12.524;2024-01-25T05:06:02;25.52;;;3.70;;
21862;SDS011;11096;51.338;12.524;2024-01-25T05:08:27;17.80;;;3.83;;
21862;SDS011;11096;51.338;12.524;2024-01-25T05:10:52;20.80;;;3.97;;
21862;SDS011;11096;51.338;12.524;2024-01-25T05:13:18;23.10;;;3.53;;
21862;SDS011;11096;51.338;12.524;2024-01-25T05:15:43;20.73;;;4.57;;
21862;SDS011;11096;51.338;12.524;2024-01-25T05:18:08;22.67;;;3.70;;
21862;SDS011;11096;51.338;12.524;2024-01-25T05:20:34;16.50;;;3.25;;
21862;SDS011;11096;51.338;12.524;2024-01-25T05:23:01;24.92;;;3.65;;
21862;SDS011;11096;51.338;12.524;2024-01-25T05:25:27;17.42;;;3.08;;
21862;SDS011;11096;51.338;12.524;2024-01-25T05:27:53;15.80;;;3.47;;
21862;SDS011;11096;51.338;12.524;2024-01-25T05:30:19;18.60;;;3.22;;
21862;SDS011;11096;51.338;12.524;2024-01-25T05:32:44;21.20;;;3.47;;
21862;SDS011;11096;51.338;12.524;2024-01-25T05:35:11;16.75;;;3.45;;
21862;SDS011;11096;51.338;12.524;2024-01-25T05:37:36;21.88;;;3.15;;
21862;SDS011;11096;51.338;12.524;2024-01-25T05:40:01;15.35;;;2.88;;
21862;SDS011;11096;51.338;12.524;2024-01-25T05:42:26;17.10;;;3.20;;
21862;SDS011;11096;51.338;12.524;2024-01-25T05:44:52;22.63;;;3.67;;
21862;SDS011;11096;51.338;12.524;2024-01-25T05:47:17;15.60;;;2.92;;
21862;SDS011;11096;51.338;12.524;2024-01-25T05:49:42;19.52;;;3.53;;
21862;SDS011;11096;51.338;12.524;2024-01-25T05:52:07;26.50;;;3.88;;
21862;SDS011;11096;51.338;12.524;2024-01-25T05:54:33;17.35;;;3.47;;
21862;SDS011;11096;51.338;12.524;2024-01-25T05:56:58;19.67;;;3.58;;
21862;SDS011;11096;51.338;12.524;2024-01-25T05:59:23;22.88;;;4.15;;
21862;SDS011;11096;51.338;12.524;2024-01-25T06:01:48;20.00;;;3.58;;
21862;SDS011;11096;51.338;12.524;2024-01-25T06:04:14;24.23;;;4.00;;
21862;SDS011;11096;51.338;12.524;2024-01-25T06:06:39;19.67;;;3.53;;
21862;SDS011;11096;51.338;12.524;2024-01-25T06:09:04;16.10;;;3.47;;
21862;SDS011;11096;51.338;12.524;2024-01-25T06:11:30;12.90;;;2.50;;
21862;SDS011;11096;51.338;12.524;2024-01-25T06:13:55;20.15;;;3.88;;
21862;SDS011;11096;51.338;12.524;2024-01-25T06:16:21;21.63;;;3.25;;
21862;SDS011;11096;51.338;12.524;2024-01-25T06:18:46;17.65;;;3.28;;
21862;SDS011;11096;51.338;12.524;2024-01-25T06:21:11;22.02;;;3.40;;
21862;SDS011;11096;51.338;12.524;2024-01-25T06:23:36;16.67;;;3.28;;
21862;SDS011;11096;51.338;12.524;2024-01-25T06:26:01;18.58;;;3.40;;
21862;SDS011;11096;51.338;12.524;2024-01-25T06:28:27;20.48;;;3.42;;
21862;SDS011;11096;51.338;12.524;2024-01-25T06:30:52;18.63;;;3.13;;
21862;SDS011;11096;51.338;12.524;2024-01-25T06:33:18;20.73;;;3.22;;
21862;SDS011;11096;51.338;12.524;2024-01-25T06:35:43;13.75;;;2.47;;
21862;SDS011;11096;51.338;12.524;2024-01-25T06:38:08;20.40;;;3.95;;
21862;SDS011;11096;51.338;12.524;2024-01-25T06:40:33;9.57;;;2.83;;
21862;SDS011;11096;51.338;12.524;2024-01-25T06:42:59;17.23;;;2.80;;
21862;SDS011;11096;51.338;12.524;2024-01-25T06:45:24;14.40;;;2.53;;
21862;SDS011;11096;51.338;12.524;2024-01-25T06:47:49;17.70;;;2.63;;
21862;SDS011;11096;51.338;12.524;2024-01-25T06:50:14;14.32;;;2.92;;
21862;SDS011;11096;51.338;12.524;2024-01-25T06:52:40;15.25;;;2.58;;
21862;SDS011;11096;51.338;12.524;2024-01-25T06:55:05;19.42;;;2.80;;
21862;SDS011;11096;51.338;12.524;2024-01-25T06:57:30;18.85;;;2.95;;
21862;SDS011;11096;51.338;12.524;2024-01-25T06:59:55;15.50;;;3.72;;
21862;SDS011;11096;51.338;12.524;2024-01-25T07:02:21;17.23;;;2.53;;
21862;SDS011;11096;51.338;12.524;2024-01-25T07:04:46;16.88;;;2.47;;
21862;SDS011;11096;51.338;12.524;2024-01-25T07:07:11;16.40;;;3.30;;
21862;SDS011;11096;51.338;12.524;2024-01-25T07:09:36;18.20;;;2.90;;
21862;SDS011;11096;51.338;12.524;2024-01-25T07:12:02;14.73;;;2.58;;
21862;SDS011;11096;51.338;12.524;2024-01-25T07:14:27;14.98;;;2.80;;
21862;SDS011;11096;51.338;12.524;2024-01-25T07:16:52;9.95;;;2.45;;
21862;SDS011;11096;51.338;12.524;2024-01-25T07:19:17;12.60;;;3.40;;
21862;SDS011;11096;51.338;12.524;2024-01-25T07:21:43;15.85;;;2.72;;
21862;SDS011;11096;51.338;12.524;2024-01-25T07:24:10;17.38;;;3.03;;
21862;SDS011;11096;51.338;12.524;2024-01-25T07:26:36;16.58;;;3.45;;
21862;SDS011;11096;51.338;12.524;2024-01-25T07:29:01;12.68;;;2.75;;
21862;SDS011;11096;51.338;12.524;2024-01-25T07:31:27;16.13;;;3.05;;
21862;SDS011;11096;51.338;12.524;2024-01-25T07:33:52;18.52;;;3.20;;
21862;SDS011;11096;51.338;12.524;2024-01-25T07:36:18;17.38;;;3.33;;
21862;SDS011;11096;51.338;12.524;2024-01-25T07:38:43;16.60;;;3.47;;
21862;SDS011;11096;51.338;12.524;2024-01-25T07:41:09;23.83;;;3.13;;
21862;SDS011;11096;51.338;12.524;2024-01-25T07:43:34;14.02;;;2.50;;
21862;SDS011;11096;51.338;12.524;2024-01-25T07:45:59;15.43;;;2.80;;
21862;SDS011;11096;51.338;12.524;2024-01-25T07:48:24;11.65;;;2.58;;
21862;SDS011;11096;51.338;12.524;2024-01-25T07:50:50;21.63;;;2.97;;
21862;SDS011;11096;51.338;12.524;2024-01-25T07:53:15;15.55;;;2.70;;
21862;SDS011;11096;51.338;12.524;2024-01-25T07:55:41;19.73;;;3.33;;
21862;SDS011;11096;51.338;12.524;2024-01-25T07:58:06;16.92;;;3.00;;
21862;SDS011;11096;51.338;12.524;2024-01-25T08:00:32;13.85;;;2.38;;
21862;SDS011;11096;51.338;12.524;2024-01-25T08:02:57;14.73;;;3.08;;
21862;SDS011;11096;51.338;12.524;2024-01-25T08:05:22;14.57;;;3.00;;
21862;SDS011;11096;51.338;12.524;2024-01-25T08:07:47;11.65;;;2.25;;
21862;SDS011;11096;51.338;12.524;2024-01-25T08:10:13;20.63;;;3.22;;
21862;SDS011;11096;51.338;12.524;2024-01-25T08:12:39;16.55;;;2.90;;
21862;SDS011;11096;51.338;12.524;2024-01-25T08:15:05;19.90;;;3.03;;
21862;SDS011;11096;51.338;12.524;2024-01-25T08:17:31;14.88;;;3.00;;
21862;SDS011;11096;51.338;12.524;2024-01-25T08:19:56;12.57;;;2.58;;
21862;SDS011;11096;51.338;12.524;2024-01-25T08:22:21;18.05;;;3.58;;
21862;SDS011;11096;51.338;12.524;2024-01-25T08:24:48;15.43;;;3.03;;
21862;SDS011;11096;51.338;12.524;2024-01-25T08:27:13;15.63;;;2.95;;
21862;SDS011;11096;51.338;12.524;2024-01-25T08:29:39;20.67;;;2.92;;
21862;SDS011;11096;51.338;12.524;2024-01-25T08:32:04;14.60;;;3.50;;
21862;SDS011;11096;51.338;12.524;2024-01-25T08:34:30;15.45;;;2.83;;
21862;SDS011;11096;51.338;12.524;2024-01-25T08:36:55;15.70;;;3.25;;
21862;SDS011;11096;51.338;12.524;2024-01-25T08:39:20;30.40;;;4.63;;
21862;SDS011;11096;51.338;12.524;2024-01-25T08:41:46;23.23;;;3.92;;
21862;SDS011;11096;51.338;12.524;2024-01-25T08:44:14;20.55;;;2.97;;
21862;SDS011;11096;51.338;12.524;2024-01-25T08:46:39;18.90;;;3.58;;
21862;SDS011;11096;51.338;12.524;2024-01-25T08:49:04;12.85;;;2.92;;
21862;SDS011;11096;51.338;12.524;2024-01-25T08:51:33;19.02;;;3.08;;
21862;SDS011;11096;51.338;12.524;2024-01-25T08:53:59;27.38;;;4.05;;
21862;SDS011;11096;51.338;12.524;2024-01-25T08:56:24;16.90;;;3.42;;
21862;SDS011;11096;51.338;12.524;2024-01-25T08:58:49;19.67;;;3.15;;
21862;SDS011;11096;51.338;12.524;2024-01-25T09:01:15;22.20;;;3.25;;
21862;SDS011;11096;51.338;12.524;2024-01-25T09:03:40;13.45;;;3.10;;
21862;SDS011;11096;51.338;12.524;2024-01-25T09:06:06;22.33;;;3.85;;
21862;SDS011;11096;51.338;12.524;2024-01-25T09:08:31;25.13;;;4.60;;
21862;SDS011;11096;51.338;12.524;2024-01-25T09:10:58;14.77;;;3.63;;
21862;SDS011;11096;51.338;12.524;2024-01-25T09:13:23;15.30;;;3.90;;
21862;SDS011;11096;51.338;12.524;2024-01-25T09:15:48;15.95;;;3.08;;
21862;SDS011;11096;51.338;12.524;2024-01-25T09:18:14;21.88;;;3.20;;
21862;SDS011;11096;51.338;12.524;2024-01-25T09:20:39;15.52;;;3.00;;
21862;SDS011;11096;51.338;12.524;2024-01-25T09:23:06;16.10;;;3.10;;
21862;SDS011;11096;51.338;12.524;2024-01-25T09:25:31;19.08;;;3.47;;
21862;SDS011;11096;51.338;12.524;2024-01-25T09:27:57;18.48;;;3.05;;
21862;SDS011;11096;51.338;12.524;2024-01-25T09:30:22;14.52;;;2.75;;
21862;SDS011;11096;51.338;12.524;2024-01-25T09:32:48;14.98;;;2.80;;
21862;SDS011;11096;51.338;12.524;2024-01-25T09:35:13;9.70;;;2.38;;
21862;SDS011;11096;51.338;12.524;2024-01-25T09:37:39;17.95;;;3.58;;
21862;SDS011;11096;51.338;12.524;2024-01-25T09:40:05;16.10;;;2.90;;
21862;SDS011;11096;51.338;12.524;2024-01-25T09:42:30;17.27;;;3.10;;
21862;SDS011;11096;51.338;12.524;2024-01-25T09:44:56;19.52;;;3.08;;
21862;SDS011;11096;51.338;12.524;2024-01-25T09:47:21;19.92;;;3.38;;
21862;SDS011;11096;51.338;12.524;2024-01-25T09:49:47;17.23;;;3.55;;
21862;SDS011;11096;51.338;12.524;2024-01-25T09:52:12;21.08;;;3.55;;
21862;SDS011;11096;51.338;12.524;2024-01-25T09:54:38;15.80;;;2.92;;
21862;SDS011;11096;51.338;12.524;2024-01-25T09:57:06;13.82;;;3.13;;
21862;SDS011;11096;51.338;12.524;2024-01-25T09:59:32;14.75;;;3.55;;
21862;SDS011;11096;51.338;12.524;2024-01-25T10:01:57;14.55;;;3.15;;
21862;SDS011;11096;51.338;12.524;2024-01-25T10:04:23;15.55;;;2.60;;
21862;SDS011;11096;51.338;12.524;2024-01-25T10:06:49;12.30;;;2.28;;
21862;SDS011;11096;51.338;12.524;2024-01-25T10:09:14;14.40;;;3.13;;
21862;SDS011;11096;51.338;12.524;2024-01-25T10:11:39;14.50;;;3.50;;
21862;SDS011;11096;51.338;12.524;2024-01-25T10:14:05;12.43;;;2.70;;
21862;SDS011;11096;51.338;12.524;2024-01-25T10:16:31;13.40;;;3.10;;
21862;SDS011;11096;51.338;12.524;2024-01-25T10:18:56;14.98;;;3.05;;
21862;SDS011;11096;51.338;12.524;2024-01-25T10:21:22;11.40;;;2.90;;
21862;SDS011;11096;51.338;12.524;2024-01-25T10:23:48;14.80;;;2.83;;
21862;SDS011;11096;51.338;12.524;2024-01-25T10:26:13;14.27;;;2.90;;
21862;SDS011;11096;51.338;12.524;2024-01-25T10:28:39;22.40;;;3.70;;
21862;SDS011;11096;51.338;12.524;2024-01-25T10:31:04;11.10;;;2.83;;
21862;SDS011;11096;51.338;12.524;2024-01-25T10:33:31;14.70;;;2.95;;
21862;SDS011;11096;51.338;12.524;2024-01-25T10:35:56;19.60;;;2.67;;
21862;SDS011;11096;51.338;12.524;2024-01-25T10:38:28;18.42;;;2.92;;
21862;SDS011;11096;51.338;12.524;2024-01-25T10:40:54;13.02;;;2.70;;
21862;SDS011;11096;51.338;12.524;2024-01-25T10:43:19;12.38;;;2.85;;
21862;SDS011;11096;51.338;12.524;2024-01-25T10:45:45;14.02;;;2.47;;
21862;SDS011;11096;51.338;12.524;2024-01-25T10:48:10;18.98;;;3.28;;
21862;SDS011;11096;51.338;12.524;2024-01-25T10:50:36;15.02;;;3.00;;
21862;SDS011;11096;51.338;12.524;2024-01-25T10:53:02;16.85;;;3.00;;
21862;SDS011;11096;51.338;12.524;2024-01-25T10:55:27;22.73;;;2.95;;
21862;SDS011;11096;51.338;12.524;2024-01-25T10:57:53;16.40;;;2.85;;
21862;SDS011;11096;51.338;12.524;2024-01-25T11:00:19;14.05;;;3.00;;
21862;SDS011;11096;51.338;12.524;2024-01-25T11:02:44;12.35;;;2.65;;
21862;SDS011;11096;51.338;12.524;2024-01-25T11:05:11;17.02;;;3.50;;
21862;SDS011;11096;51.338;12.524;2024-01-25T11:07:46;14.75;;;2.85;;
21862;SDS011;11096;51.338;12.524;2024-01-25T11:10:18;17.20;;;2.83;;
21862;SDS011;11096;51.338;12.524;2024-01-25T11:12:56;9.52;;;2.38;;
21862;SDS011;11096;51.338;12.524;2024-01-25T11:15:22;14.07;;;3.03;;
21862;SDS011;11096;51.338;12.524;2024-01-25T11:17:55;11.68;;;2.67;;
21862;SDS011;11096;51.338;12.524;2024-01-25T11:20:24;16.25;;;2.40;;
21862;SDS011;11096;51.338;12.524;2024-01-25T11:22:56;15.70;;;2.70;;
21862;SDS011;11096;51.338;12.524;2024-01-25T11:25:23;18.63;;;2.72;;
21862;SDS011;11096;51.338;12.524;2024-01-25T11:27:48;14.30;;;2.65;;
21862;SDS011;11096;51.338;12.524;2024-01-25T11:30:15;18.83;;;2.75;;
21862;SDS011;11096;51.338;12.524;2024-01-25T11:32:42;11.95;;;2.30;;
21862;SDS011;11096;51.338;12.524;2024-01-25T11:35:08;12.80;;;3.15;;
21862;SDS011;11096;51.338;12.524;2024-01-25T11:37:33;12.30;;;2.47;;
21862;SDS011;11096;51.338;12.524;2024-01-25T11:39:59;14.38;;;2.17;;
21862;SDS011;11096;51.338;12.524;2024-01-25T11:42:24;11.30;;;2.40;;
21862;SDS011;11096;51.338;12.524;2024-01-25T11:44:49;15.73;;;3.20;;
21862;SDS011;11096;51.338;12.524;2024-01-25T11:47:14;12.95;;;2.42;;
21862;SDS011;11096;51.338;12.524;2024-01-25T11:49:40;17.60;;;2.90;;
21862;SDS011;11096;51.338;12.524;2024-01-25T11:52:05;14.90;;;2.75;;
21862;SDS011;11096;51.338;12.524;2024-01-25T11:54:32;15.40;;;2.50;;
21862;SDS011;11096;51.338;12.524;2024-01-25T11:56:58;12.90;;;2.67;;
21862;SDS011;11096;51.338;12.524;2024-01-25T11:59:23;19.02;;;2.72;;
21862;SDS011;11096;51.338;12.524;2024-01-25T12:01:48;15.45;;;2.47;;
21862;SDS011;11096;51.338;12.524;2024-01-25T12:04:14;10.05;;;3.13;;
21862;SDS011;11096;51.338;12.524;2024-01-25T12:06:39;15.70;;;2.80;;
21862;SDS011;11096;51.338;12.524;2024-01-25T12:09:10;11.95;;;2.10;;
21862;SDS011;11096;51.338;12.524;2024-01-25T12:11:35;14.23;;;2.35;;
21862;SDS011;11096;51.338;12.524;2024-01-25T12:14:01;17.33;;;2.42;;
21862;SDS011;11096;51.338;12.524;2024-01-25T12:16:26;14.73;;;3.10;;
21862;SDS011;11096;51.338;12.524;2024-01-25T12:18:52;13.48;;;2.15;;
21862;SDS011;11096;51.338;12.524;2024-01-25T12:21:18;10.15;;;2.53;;
21862;SDS011;11096;51.338;12.524;2024-01-25T12:23:44;12.00;;;2.30;;
21862;SDS011;11096;51.338;12.524;2024-01-25T12:26:09;15.35;;;2.92;;
21862;SDS011;11096;51.338;12.524;2024-01-25T12:28:35;12.27;;;2.97;;
21862;SDS011;11096;51.338;12.524;2024-01-25T12:31:04;9.30;;;2.17;;
21862;SDS011;11096;51.338;12.524;2024-01-25T12:33:29;13.80;;;2.80;;
21862;SDS011;11096;51.338;12.524;2024-01-25T12:35:55;11.13;;;2.28;;
21862;SDS011;11096;51.338;12.524;2024-01-25T12:38:23;9.45;;;2.67;;
21862;SDS011;11096;51.338;12.524;2024-01-25T12:40:49;12.18;;;2.25;;
21862;SDS011;11096;51.338;12.524;2024-01-25T12:43:15;11.77;;;2.25;;
21862;SDS011;11096;51.338;12.524;2024-01-25T12:45:40;11.15;;;2.22;;
21862;SDS011;11096;51.338;12.524;2024-01-25T12:48:05;17.15;;;2.75;;
21862;SDS011;11096;51.338;12.524;2024-01-25T12:50:31;12.75;;;2.63;;
21862;SDS011;11096;51.338;12.524;2024-01-25T12:52:57;13.75;;;2.33;;
21862;SDS011;11096;51.338;12.524;2024-01-25T12:55:22;20.73;;;3.05;;
21862;SDS011;11096;51.338;12.524;2024-01-25T12:57:47;17.60;;;2.78;;
21862;SDS011;11096;51.338;12.524;2024-01-25T13:00:12;16.92;;;3.13;;
21862;SDS011;11096;51.338;12.524;2024-01-25T13:02:38;14.48;;;2.78;;
21862;SDS011;11096;51.338;12.524;2024-01-25T13:05:03;13.90;;;3.38;;
21862;SDS011;11096;51.338;12.524;2024-01-25T13:07:29;21.65;;;4.15;;
21862;SDS011;11096;51.338;12.524;2024-01-25T13:09:54;16.42;;;4.45;;
21862;SDS011;11096;51.338;12.524;2024-01-25T13:12:19;13.30;;;3.83;;
21862;SDS011;11096;51.338;12.524;2024-01-25T13:14:44;18.77;;;3.85;;
21862;SDS011;11096;51.338;12.524;2024-01-25T13:17:10;21.48;;;3.53;;
21862;SDS011;11096;51.338;12.524;2024-01-25T13:19:35;12.82;;;2.55;;
21862;SDS011;11096;51.338;12.524;2024-01-25T13:22:00;15.40;;;2.55;;
21862;SDS011;11096;51.338;12.524;2024-01-25T13:24:25;16.20;;;2.42;;
21862;SDS011;11096;51.338;12.524;2024-01-25T13:26:51;14.45;;;2.60;;
21862;SDS011;11096;51.338;12.524;2024-01-25T13:29:16;17.45;;;3.50;;
21862;SDS011;11096;51.338;12.524;2024-01-25T13:31:41;16.85;;;2.60;;
21862;SDS011;11096;51.338;12.524;2024-01-25T13:34:06;11.30;;;2.85;;
21862;SDS011;11096;51.338;12.524;2024-01-25T13:36:32;13.52;;;2.85;;
21862;SDS011;11096;51.338;12.524;2024-01-25T13:38:57;13.75;;;2.90;;
21862;SDS011;11096;51.338;12.524;2024-01-25T13:41:22;11.13;;;2.50;;
21862;SDS011;11096;51.338;12.524;2024-01-25T13:43:47;10.52;;;2.70;;
21862;SDS011;11096;51.338;12.524;2024-01-25T13:46:13;10.90;;;2.38;;
21862;SDS011;11096;51.338;12.524;2024-01-25T13:48:38;16.02;;;2.65;;
21862;SDS011;11096;51.338;12.524;2024-01-25T13:51:03;14.68;;;2.75;;
21862;SDS011;11096;51.338;12.524;2024-01-25T13:53:28;11.63;;;2.45;;
21862;SDS011;11096;51.338;12.524;2024-01-25T13:55:53;10.60;;;2.10;;
21862;SDS011;11096;51.338;12.524;2024-01-25T13:58:19;13.77;;;2.78;;
21862;SDS011;11096;51.338;12.524;2024-01-25T14:00:44;12.45;;;3.45;;
21862;SDS011;11096;51.338;12.524;2024-01-25T14:03:09;11.13;;;2.55;;
21862;SDS011;11096;51.338;12.524;2024-01-25T14:05:34;12.15;;;2.88;;
21862;SDS011;11096;51.338;12.524;2024-01-25T14:08:00;18.38;;;2.70;;
21862;SDS011;11096;51.338;12.524;2024-01-25T14:10:25;16.73;;;2.53;;